Kingman, Illinois
Current Conditions -  °F | °C
As of 8:15 AM on Thursday 29 Jan 2015 (Local Time) from K1H2 Reporting Station
Haze Haze  
Wind Chill: 31°   Ceiling: 1700
Heat Index: 40°   Visibility: 5mi
Dew Point: 32°   Wind: 20mph
Humidity: 73%   Direction: 270°W
Pressure: 29.94"   Gusts: 32mph
Location:  39.2838°N, 88.6429°W
Report Text: K1H2 291415Z AUTO 27017G28KT 5SM HZ OVC017 05/00 A2994 RMK AO2 T00450000
Loading
Personal Weather Stations






























Interactive Weather Map New forecast layout! Learn more

10-Day Weather Forecast

Advertisements
Track Severe Weather on mobile